Time;durP1;ratioP1;P1;durP2;ratioP2;P2;SDS_P1;SDS_P2;PMS_P1;PMS_P2;Temp;Humidity;BMP_temperature;BMP_pressure;BME280_temperature;BME280_humidity;BME280_pressure;Samples;Min_cycle;Max_cycle;Signal;HPM_P1;HPM_P2
2022/11/06 00:00:08;;;;;;;20.40;7.00;;;;;;;9.92;100.00;101211.59;5030272;28;20071;-44
2022/11/06 00:02:33;;;;;;;21.60;6.97;;;;;;;9.92;100.00;101220.50;5029975;28;20038;-43
2022/11/06 00:06:46;;;;;;;23.80;7.53;;;;;;;9.92;100.00;101206.22;5028745;28;20459;-44
2022/11/06 00:07:45;;;;;;;23.55;7.20;;;;;;;9.93;100.00;101210.59;5029061;28;20038;-43
2022/11/06 00:10:12;;;;;;;19.45;6.47;;;;;;;9.93;100.00;101202.53;5029568;28;20332;-44
2022/11/06 00:12:37;;;;;;;24.38;7.55;;;;;;;9.95;100.00;101200.50;5028915;28;20034;-44
2022/11/06 00:15:03;;;;;;;23.40;6.30;;;;;;;9.94;100.00;101199.66;5028496;28;20511;-44
2022/11/06 00:17:28;;;;;;;15.45;6.50;;;;;;;9.97;100.00;101193.09;5029711;28;20403;-44
2022/11/06 00:19:56;;;;;;;20.60;7.07;;;;;;;9.99;100.00;101193.78;5029077;28;20462;-44
2022/11/06 00:22:21;;;;;;;;;;;;;;;10.00;100.00;101198.13;5029305;28;20034;-43
2022/11/06 00:24:48;;;;;;;28.85;7.05;;;;;;;9.98;100.00;101190.25;5027260;28;19912;-44
2022/11/06 00:27:13;;;;;;;14.50;6.43;;;;;;;9.97;100.00;101193.09;5028993;28;20057;-43
2022/11/06 00:29:39;;;;;;;25.40;6.82;;;;;;;9.96;100.00;101196.81;5028761;28;20104;-44
2022/11/06 00:32:05;;;;;;;17.90;6.25;;;;;;;9.98;100.00;101194.78;5028995;28;20120;-43
2022/11/06 00:34:30;;;;;;;15.57;6.53;;;;;;;10.00;100.00;101190.06;5028611;28;20120;-43
2022/11/06 00:36:56;;;;;;;21.38;6.88;;;;;;;10.01;100.00;101189.09;5028332;28;20141;-44
2022/11/06 00:39:21;;;;;;;19.08;5.93;;;;;;;10.02;100.00;101188.88;5028977;28;20025;-43
2022/11/06 00:41:46;;;;;;;17.35;6.10;;;;;;;10.01;100.00;101192.59;5028450;28;20410;-43
2022/11/06 00:44:12;;;;;;;18.85;7.28;;;;;;;9.97;100.00;101202.00;5026885;28;20033;-43
2022/11/06 00:46:37;;;;;;;23.90;7.03;;;;;;;9.94;100.00;101188.06;5028862;28;20029;-43
2022/11/06 00:49:02;;;;;;;22.55;7.75;;;;;;;9.88;100.00;101190.41;5028341;28;20543;-43
2022/11/06 00:51:30;;;;;;;20.58;7.18;;;;;;;9.84;100.00;101197.13;5028239;28;20116;-43
2022/11/06 00:53:59;;;;;;;25.05;8.35;;;;;;;9.77;100.00;101204.22;5028873;28;20467;-44
2022/11/06 00:56:24;;;;;;;;;;;;;;;9.72;100.00;101195.81;5028879;28;20034;-42
2022/11/06 00:58:50;;;;;;;30.13;8.88;;;;;;;9.65;100.00;101206.38;5021750;28;19939;-44
2022/11/06 01:01:18;;;;;;;24.67;8.93;;;;;;;9.62;100.00;101200.50;5028627;28;20044;-43
2022/11/06 01:03:45;;;;;;;22.77;8.40;;;;;;;9.63;100.00;101207.53;5026526;28;20041;-43
2022/11/06 01:06:16;;;;;;;29.83;8.63;;;;;;;9.57;100.00;101208.22;5030188;28;20083;-43
2022/11/06 01:08:42;;;;;;;31.23;10.10;;;;;;;9.57;100.00;101202.84;5031371;28;20502;-43
2022/11/06 01:11:17;;;;;;;32.65;10.10;;;;;;;9.54;100.00;101208.56;5032105;28;20071;-44
2022/11/06 01:13:43;;;;;;;36.65;10.63;;;;;;;9.53;100.00;101222.97;5030706;28;20025;-44
2022/11/06 01:16:13;;;;;;;27.03;10.30;;;;;;;9.51;100.00;101216.97;5031540;28;20080;-44
2022/11/06 01:18:40;;;;;;;33.08;9.73;;;;;;;9.50;100.00;101224.16;5032032;28;20053;-44
2022/11/06 01:21:10;;;;;;;37.58;11.50;;;;;;;9.46;100.00;101212.06;5031759;28;20064;-44
2022/11/06 01:23:35;;;;;;;38.88;11.50;;;;;;;9.43;100.00;101213.25;5032028;28;20037;-44
2022/11/06 01:26:03;;;;;;;33.53;11.68;;;;;;;9.46;100.00;101209.38;5031871;28;20453;-44
2022/11/06 01:28:29;;;;;;;34.17;11.65;;;;;;;9.42;100.00;101199.97;5025138;28;20383;-45
2022/11/06 01:30:54;;;;;;;36.10;10.93;;;;;;;9.41;100.00;101192.91;5031927;28;20028;-46
2022/11/06 01:33:20;;;;;;;36.78;11.35;;;;;;;9.40;100.00;101213.56;5032181;28;20083;-46
2022/11/06 01:35:47;;;;;;;32.65;10.70;;;;;;;9.40;100.00;101208.22;5030305;28;20025;-47
2022/11/06 01:38:12;;;;;;;45.92;12.13;;;;;;;9.40;100.00;101201.97;5031538;28;20041;-47
2022/11/06 01:40:43;;;;;;;41.55;12.90;;;;;;;9.37;100.00;101210.38;5029340;28;20048;-47
2022/11/06 01:43:16;;;;;;;31.15;11.80;;;;;;;9.36;100.00;101209.53;5031765;28;20040;-47
2022/11/06 01:45:44;;;;;;;34.72;13.88;;;;;;;9.33;100.00;101209.03;5030531;28;20037;-45
2022/11/06 01:48:11;;;;;;;33.00;12.13;;;;;;;9.33;100.00;101206.34;5030643;28;20087;-47
2022/11/06 01:50:37;;;;;;;35.70;13.50;;;;;;;9.33;100.00;101201.81;5014456;28;20029;-46
2022/11/06 01:53:03;;;;;;;32.83;14.02;;;;;;;9.32;100.00;101202.81;5030713;28;20033;-46
2022/11/06 01:55:33;;;;;;;34.42;14.43;;;;;;;9.32;100.00;101199.28;5031648;28;20033;-47
2022/11/06 01:58:01;;;;;;;39.53;14.80;;;;;;;9.32;100.00;101202.81;5030412;28;20164;-45
2022/11/06 02:00:28;;;;;;;44.75;15.00;;;;;;;9.31;100.00;101197.59;5031539;28;20057;-45
2022/11/06 02:02:54;;;;;;;30.15;14.18;;;;;;;9.32;100.00;101199.28;5031644;28;20036;-45
2022/11/06 02:05:20;;;;;;;41.50;14.63;;;;;;;9.30;100.00;101195.94;5031377;28;20112;-47
2022/11/06 02:07:45;;;;;;;37.33;15.20;;;;;;;9.27;100.00;101197.09;5029802;28;20125;-46
2022/11/06 02:10:11;;;;;;;39.15;15.60;;;;;;;9.28;100.00;101192.56;5031235;28;20434;-46
2022/11/06 02:13:07;;;;;;;36.08;15.65;;;;;;;9.27;100.00;101186.34;5031306;28;20475;-45
2022/11/06 02:15:51;;;;;;;38.58;14.50;;;;;;;9.27;100.00;101181.00;5018860;28;20144;-44
2022/11/06 02:18:35;;;;;;;47.42;14.98;;;;;;;9.27;100.00;101186.34;5028911;28;20033;-45
2022/11/06 02:21:09;;;;;;;42.47;14.90;;;;;;;9.27;100.00;101180.13;5024052;28;20021;-44
2022/11/06 02:23:46;;;;;;;50.22;15.82;;;;;;;9.28;100.00;101177.28;5030442;28;20034;-44
2022/11/06 02:26:17;;;;;;;42.65;17.38;;;;;;;9.29;100.00;101173.56;5030535;28;20033;-44
2022/11/06 02:28:50;;;;;;;51.38;16.58;;;;;;;9.28;100.00;101171.91;5029019;28;20030;-44
2022/11/06 02:31:21;;;;;;;56.95;17.20;;;;;;;9.29;100.00;101178.94;5028676;28;20175;-44
2022/11/06 02:33:50;;;;;;;52.17;16.83;;;;;;;9.30;100.00;101172.59;5030634;28;20139;-44
2022/11/06 02:36:19;;;;;;;41.63;15.57;;;;;;;9.31;100.00;101187.69;5029014;28;20025;-43
2022/11/06 02:38:45;;;;;;;;;;;;;;;9.31;100.00;101176.13;5029590;28;20060;-43
2022/11/06 02:41:18;;;;;;;47.83;17.50;;;;;;;9.33;100.00;101176.78;5029064;28;20011;-43
2022/11/06 02:43:47;;;;;;;52.03;18.48;;;;;;;9.34;100.00;101168.56;5029954;28;20032;-43
2022/11/06 02:46:17;;;;;;;53.80;19.23;;;;;;;9.32;100.00;101162.53;5029245;28;20384;-43
2022/11/06 02:48:46;;;;;;;49.22;18.67;;;;;;;9.33;100.00;101148.09;5009262;28;20367;-43
2022/11/06 02:51:14;;;;;;;46.47;18.30;;;;;;;9.31;100.00;101150.09;5028816;28;20072;-46
2022/11/06 02:53:42;;;;;;;50.08;18.27;;;;;;;9.32;100.00;101149.09;5029227;28;20110;-45
2022/11/06 02:56:12;;;;;;;51.75;19.50;;;;;;;9.32;100.00;101142.88;5028218;28;20582;-45
2022/11/06 02:58:40;;;;;;;58.28;20.75;;;;;;;9.34;100.00;101165.03;5031160;28;20460;-45
2022/11/06 03:01:23;;;;;;;50.42;20.15;;;;;;;9.34;100.00;101152.44;5028385;28;20474;-44
2022/11/06 03:03:52;;;;;;;43.17;21.70;;;;;;;9.33;100.00;101158.81;5030037;28;20061;-44
2022/11/06 03:06:30;;;;;;;56.58;23.67;;;;;;;9.33;100.00;101156.13;5003184;28;20045;-44
2022/11/06 03:09:02;;;;;;;60.60;22.08;;;;;;;9.36;100.00;101146.91;5025129;28;20032;-44
2022/11/06 03:11:34;;;;;;;53.03;24.35;;;;;;;9.34;100.00;101143.53;5022417;28;20041;-44
2022/11/06 03:14:30;;;;;;;55.67;22.40;;;;;;;9.35;100.00;101140.72;5029771;28;20037;-45
2022/11/06 03:17:08;;;;;;;49.63;23.20;;;;;;;9.34;100.00;101139.00;5029883;28;20029;-44
2022/11/06 03:20:02;;;;;;;53.13;22.73;;;;;;;9.36;100.00;101141.53;5029944;28;20030;-43
2022/11/06 03:22:36;;;;;;;52.53;22.48;;;;;;;9.37;100.00;101136.00;5028123;28;20021;-43
2022/11/06 03:25:17;;;;;;;49.47;22.42;;;;;;;9.36;100.00;101126.25;5012245;28;20036;-43
2022/11/06 03:28:10;;;;;;;44.60;21.77;;;;;;;9.37;100.00;101119.03;5030054;28;20033;-44
2022/11/06 03:30:41;;;;;;;50.42;25.30;;;;;;;9.38;100.00;101124.25;5022745;28;20120;-44
2022/11/06 03:33:14;;;;;;;44.90;23.90;;;;;;;9.41;100.00;101118.53;5011256;28;20483;-43
2022/11/06 03:35:43;;;;;;;59.83;24.98;;;;;;;9.42;100.00;101125.56;5011676;28;20107;-43
2022/11/06 03:38:18;;;;;;;51.88;24.73;;;;;;;9.44;100.00;101118.19;5028276;28;20091;-43
2022/11/06 03:40:46;;;;;;;58.20;25.33;;;;;;;9.44;100.00;101118.19;5007826;28;20053;-43
2022/11/06 03:43:15;;;;;;;55.78;25.45;;;;;;;9.43;100.00;101113.84;5019797;28;20059;-43
2022/11/06 03:45:42;;;;;;;58.17;25.20;;;;;;;9.46;100.00;101107.28;5028673;28;20144;-44
2022/11/06 03:48:33;;;;;;;48.25;23.60;;;;;;;9.50;100.00;101088.97;5028987;28;20033;-43
2022/11/06 03:51:01;;;;;;;53.30;22.33;;;;;;;9.51;100.00;101085.31;5028186;28;20030;-43
2022/11/06 03:53:30;;;;;;;46.13;23.98;;;;;;;9.53;100.00;101083.25;5029489;28;20075;-44
2022/11/06 03:56:11;;;;;;;50.55;23.10;;;;;;;9.55;100.00;101083.94;5009059;28;20108;-43
2022/11/06 03:58:38;;;;;;;41.38;22.38;;;;;;;9.56;100.00;101088.31;5027686;28;20337;-43
2022/11/06 04:01:08;;;;;;;48.33;22.77;;;;;;;9.58;100.00;101080.91;5027721;28;20184;-43
2022/11/06 04:03:56;;;;;;;41.35;21.58;;;;;;;9.60;100.00;101068.97;5012028;28;20037;-43
2022/11/06 04:06:51;;;;;;;42.90;22.27;;;;;;;9.60;100.00;101068.16;5027964;28;20052;-43
2022/11/06 04:14:50;;;;;;;48.78;23.48;;;;;;;9.64;100.00;101048.00;5019460;28;20395;-44
2022/11/06 04:17:16;;;;;;;46.50;23.00;;;;;;;9.65;100.00;101044.28;5019520;28;20103;-44
2022/11/06 04:19:47;;;;;;;42.63;22.60;;;;;;;9.64;100.00;101042.63;5027339;28;20464;-43
2022/11/06 04:22:40;;;;;;;42.35;22.80;;;;;;;9.66;100.00;101041.44;5026587;28;20433;-44
2022/11/06 04:28:19;;;;;;;51.22;24.15;;;;;;;9.62;100.00;101047.31;5028122;28;20146;-43
2022/11/06 04:31:06;;;;;;;60.38;26.00;;;;;;;9.57;100.00;101052.38;5028249;28;20029;-44
2022/11/06 04:33:37;;;;;;;50.37;25.33;;;;;;;9.56;100.00;101056.09;5022683;28;20033;-44
2022/11/06 04:36:07;;;;;;;48.90;26.23;;;;;;;9.52;100.00;101052.88;5028381;28;20372;-45
2022/11/06 04:38:38;;;;;;;51.75;25.10;;;;;;;9.52;100.00;101041.28;5021386;28;20095;-43
2022/11/06 04:41:20;;;;;;;50.83;25.00;;;;;;;9.53;100.00;101048.34;5027279;28;20148;-45
2022/11/06 04:43:57;;;;;;;51.97;26.38;;;;;;;9.51;100.00;101050.38;5019014;28;20025;-44
2022/11/06 04:46:29;;;;;;;53.10;27.38;;;;;;;9.48;100.00;101054.25;5011468;28;20614;-44
2022/11/06 04:48:58;;;;;;;55.10;27.00;;;;;;;9.45;100.00;101044.66;5031430;28;20030;-45
2022/11/06 04:51:27;;;;;;;63.50;27.67;;;;;;;9.44;100.00;101048.34;5030787;28;20029;-45
2022/11/06 04:53:54;;;;;;;49.67;25.98;;;;;;;9.44;100.00;101044.81;5015505;28;20026;-43
2022/11/06 04:56:22;;;;;;;46.72;25.42;;;;;;;9.42;100.00;101044.16;5026666;28;20037;-43
2022/11/06 04:58:47;;;;;;;40.95;24.80;;;;;;;9.45;100.00;101049.19;5030651;28;20155;-42
2022/11/06 05:01:13;;;;;;;44.05;24.60;;;;;;;9.42;100.00;101044.97;5031811;28;20187;-43
2022/11/06 05:03:38;;;;;;;51.47;23.45;;;;;;;9.41;100.00;101037.13;5024172;28;20479;-42
2022/11/06 05:06:04;;;;;;;48.47;22.63;;;;;;;9.39;100.00;101031.91;5031604;28;20188;-43
2022/11/06 05:08:29;;;;;;;52.78;22.45;;;;;;;9.40;100.00;101030.03;5030397;28;20033;-44
2022/11/06 05:10:55;;;;;;;53.72;22.90;;;;;;;9.41;100.00;101031.75;5031364;28;20025;-43
2022/11/06 05:13:20;;;;;;;47.88;22.40;;;;;;;9.38;100.00;101022.16;5029790;28;20048;-46
2022/11/06 05:15:46;;;;;;;42.60;21.95;;;;;;;9.41;100.00;101021.00;5023960;28;20037;-45
2022/11/06 05:18:11;;;;;;;50.00;21.90;;;;;;;9.39;100.00;101020.31;5027725;28;20506;-46
2022/11/06 05:20:36;;;;;;;47.85;21.23;;;;;;;9.40;100.00;101009.41;5028833;28;20025;-44
2022/11/06 05:23:02;;;;;;;50.08;21.08;;;;;;;9.40;100.00;101003.19;5031139;28;20483;-45
2022/11/06 05:25:31;;;;;;;45.28;21.23;;;;;;;9.37;100.00;100996.34;5031631;28;20033;-44
2022/11/06 05:27:57;;;;;;;38.22;20.25;;;;;;;9.39;100.00;101001.50;5029808;28;20204;-44
2022/11/06 05:30:23;;;;;;;42.25;19.02;;;;;;;9.38;100.00;100992.63;5031316;28;20029;-43
2022/11/06 05:32:49;;;;;;;45.15;19.92;;;;;;;9.39;100.00;100996.97;5028535;28;20488;-43
2022/11/06 05:35:15;;;;;;;36.13;19.60;;;;;;;9.36;100.00;100991.94;5010518;28;20117;-43
2022/11/06 05:37:40;;;;;;;48.45;19.88;;;;;;;9.37;100.00;100996.34;5026355;28;20028;-43
2022/11/06 05:40:07;;;;;;;36.05;18.05;;;;;;;9.41;100.00;100988.75;5028252;28;20401;-43
2022/11/06 05:42:34;;;;;;;43.33;19.42;;;;;;;9.41;100.00;100983.38;5019594;28;20056;-42
2022/11/06 05:44:59;;;;;;;37.65;19.42;;;;;;;9.40;100.00;100982.56;5024647;28;20061;-43
2022/11/06 05:47:24;;;;;;;36.25;17.38;;;;;;;9.42;100.00;100988.56;5025781;28;20049;-43
2022/11/06 05:49:50;;;;;;;32.35;17.27;;;;;;;9.43;100.00;100981.38;5026317;28;20179;-43
2022/11/06 05:52:15;;;;;;;42.22;17.10;;;;;;;9.39;100.00;100980.03;5024517;28;20056;-43
2022/11/06 05:54:40;;;;;;;34.95;15.57;;;;;;;9.38;100.00;100978.34;5027407;28;20025;-42
2022/11/06 05:57:06;;;;;;;29.52;15.60;;;;;;;9.40;100.00;100977.19;5019673;28;20040;-43
2022/11/06 05:59:32;;;;;;;31.55;16.73;;;;;;;9.41;100.00;100967.28;5015176;28;20116;-42
2022/11/06 06:01:58;;;;;;;33.75;15.63;;;;;;;9.44;100.00;100965.06;5017563;28;20029;-42
2022/11/06 06:04:23;;;;;;;34.00;15.73;;;;;;;9.43;100.00;100968.78;5027813;28;20088;-43
2022/11/06 06:06:49;;;;;;;33.15;14.68;;;;;;;9.43;100.00;100971.47;5028577;28;20467;-42
2022/11/06 06:09:14;;;;;;;25.13;14.10;;;;;;;9.45;100.00;100969.44;5027701;28;20064;-42
2022/11/06 06:11:40;;;;;;;30.70;14.57;;;;;;;9.48;100.00;100956.66;5028744;28;20037;-43
2022/11/06 06:14:05;;;;;;;36.85;15.50;;;;;;;9.44;100.00;100957.00;5026882;28;20021;-42
2022/11/06 06:16:31;;;;;;;34.47;15.75;;;;;;;9.44;100.00;100956.19;5025321;28;20068;-43
2022/11/06 06:18:56;;;;;;;43.30;16.10;;;;;;;9.47;100.00;100953.13;5024161;28;20021;-43
2022/11/06 06:21:24;;;;;;;26.17;15.23;;;;;;;9.45;100.00;100972.13;5028704;28;20075;-43
2022/11/06 06:23:50;;;;;;;37.10;16.42;;;;;;;9.42;100.00;100959.03;5025823;28;20146;-43
2022/11/06 06:26:16;;;;;;;36.38;15.40;;;;;;;9.42;100.00;100960.88;5019852;28;20491;-43
2022/11/06 06:28:41;;;;;;;43.33;15.90;;;;;;;9.39;100.00;100959.38;5024156;28;20026;-43
2022/11/06 06:31:06;;;;;;;33.30;16.65;;;;;;;9.41;100.00;100954.66;5025194;28;20026;-43
2022/11/06 06:33:32;;;;;;;35.08;16.05;;;;;;;9.38;100.00;100957.69;5020046;28;20101;-43
2022/11/06 06:35:58;;;;;;;39.45;15.35;;;;;;;9.38;100.00;100952.34;5021983;28;20053;-43
2022/11/06 06:38:24;;;;;;;39.83;17.15;;;;;;;9.36;100.00;100940.91;5017761;28;20069;-43
2022/11/06 06:40:50;;;;;;;36.80;17.05;;;;;;;9.34;100.00;100948.28;5026338;28;20025;-43
2022/11/06 06:43:15;;;;;;;32.58;17.88;;;;;;;9.35;100.00;100943.78;5027374;28;20022;-43
2022/11/06 06:45:41;;;;;;;32.97;17.38;;;;;;;9.31;100.00;100937.06;5019312;28;20096;-43
2022/11/06 06:48:06;;;;;;;40.30;18.10;;;;;;;9.28;100.00;100938.25;5027936;28;20089;-43
2022/11/06 06:50:32;;;;;;;40.25;16.38;;;;;;;9.29;100.00;100931.03;5024276;28;20045;-42
2022/11/06 06:52:58;;;;;;;31.92;14.43;;;;;;;9.27;100.00;100925.84;5019933;28;20087;-42
2022/11/06 06:55:23;;;;;;;30.85;12.90;;;;;;;9.27;100.00;100936.59;4993405;28;20034;-43
2022/11/06 06:57:58;;;;;;;30.63;12.57;;;;;;;9.26;100.00;100932.19;5019157;28;20032;-42
2022/11/06 07:00:24;;;;;;;31.38;10.65;;;;;;;9.21;100.00;100929.19;5025771;28;20049;-43
2022/11/06 07:02:49;;;;;;;26.48;10.23;;;;;;;9.17;100.00;100933.25;5025834;28;20030;-43
2022/11/06 07:05:15;;;;;;;39.28;10.77;;;;;;;9.17;100.00;100934.06;5023515;28;20166;-43
2022/11/06 07:07:40;;;;;;;29.30;9.13;;;;;;;9.18;100.00;100934.91;5026333;28;20040;-43
2022/11/06 07:10:05;;;;;;;25.80;8.25;;;;;;;9.16;100.00;100937.78;5026856;28;20041;-43
2022/11/06 07:12:31;;;;;;;23.20;9.40;;;;;;;9.19;100.00;100941.97;5022924;28;20029;-43
2022/11/06 07:14:56;;;;;;;31.63;8.80;;;;;;;9.21;100.00;100945.31;5019372;28;20050;-43
2022/11/06 07:17:21;;;;;;;27.17;8.00;;;;;;;9.26;100.00;100948.31;5026990;28;20475;-43
2022/11/06 07:19:47;;;;;;;19.67;7.13;;;;;;;9.23;100.00;100935.22;5020697;28;20096;-43
2022/11/06 07:22:12;;;;;;;28.38;7.75;;;;;;;9.22;100.00;100941.63;5017029;28;20032;-43
2022/11/06 07:24:38;;;;;;;19.13;6.13;;;;;;;9.19;100.00;100925.88;5025305;28;20175;-43
2022/11/06 07:27:04;;;;;;;28.45;6.07;;;;;;;9.23;100.00;100927.19;5025380;28;20365;-43
2022/11/06 07:29:29;;;;;;;27.70;5.68;;;;;;;9.28;100.00;100932.88;5026566;28;20174;-43
2022/11/06 07:31:54;;;;;;;23.50;4.97;;;;;;;9.28;100.00;100930.19;5019752;28;20785;-43
2022/11/06 07:34:22;;;;;;;21.27;5.28;;;;;;;9.31;100.00;100929.84;5026198;28;20061;-43
2022/11/06 07:36:47;;;;;;;22.20;5.50;;;;;;;9.33;100.00;100921.63;5026047;28;20048;-43
2022/11/06 07:39:12;;;;;;;21.40;4.60;;;;;;;9.35;100.00;100925.81;5025320;28;20034;-43
2022/11/06 07:41:38;;;;;;;17.45;4.35;;;;;;;9.34;100.00;100924.13;5026754;28;20033;-43
2022/11/06 07:44:04;;;;;;;17.17;4.53;;;;;;;9.36;100.00;100927.47;5026139;28;20037;-43
2022/11/06 07:46:29;;;;;;;24.10;4.78;;;;;;;9.37;100.00;100931.88;5026501;28;20399;-44
2022/11/06 07:48:54;;;;;;;21.83;6.03;;;;;;;9.40;100.00;100927.97;5022917;28;20087;-44
2022/11/06 07:51:20;;;;;;;18.05;5.00;;;;;;;9.42;100.00;100942.91;5019961;28;20057;-43
2022/11/06 07:53:45;;;;;;;19.38;4.53;;;;;;;9.45;100.00;100942.59;5015624;28;20381;-44
2022/11/06 07:56:11;;;;;;;12.30;3.38;;;;;;;9.50;100.00;100944.72;5027032;28;20450;-43
2022/11/06 07:58:36;;;;;;;18.65;4.38;;;;;;;9.49;100.00;100921.56;5020943;28;20041;-44
2022/11/06 08:01:02;;;;;;;17.58;4.03;;;;;;;9.53;100.00;100933.66;5025329;28;20041;-44
2022/11/06 08:03:28;;;;;;;17.45;4.10;;;;;;;9.52;100.00;100921.22;5017669;28;20727;-42
2022/11/06 08:05:55;;;;;;;14.90;4.22;;;;;;;9.55;100.00;100920.03;5013412;28;20384;-43
2022/11/06 08:08:20;;;;;;;11.80;3.63;;;;;;;9.55;100.00;100928.09;5023177;28;20029;-42
2022/11/06 08:10:46;;;;;;;25.38;4.57;;;;;;;9.54;100.00;100924.59;5019175;28;20106;-43
2022/11/06 08:13:16;;;;;;;18.55;4.47;;;;;;;9.54;100.00;100919.22;5015400;28;20113;-43
2022/11/06 08:15:43;;;;;;;14.02;4.10;;;;;;;9.54;100.00;100913.84;4998907;28;20057;-43
2022/11/06 08:18:09;;;;;;;15.68;5.03;;;;;;;9.58;100.00;100906.25;5020304;28;20340;-43
2022/11/06 08:20:35;;;;;;;24.35;4.70;;;;;;;9.58;100.00;100898.19;5029212;28;20506;-43
2022/11/06 08:23:01;;;;;;;14.60;4.53;;;;;;;9.62;100.00;100891.47;5025687;28;20116;-43
2022/11/06 08:25:27;;;;;;;18.73;4.57;;;;;;;9.62;100.00;100895.00;5032722;28;20036;-42
2022/11/06 08:28:00;;;;;;;21.30;4.72;;;;;;;9.65;100.00;100893.81;5030755;28;20025;-43
2022/11/06 08:30:27;;;;;;;18.10;4.32;;;;;;;9.63;100.00;100885.06;5027982;28;20053;-43
2022/11/06 08:32:52;;;;;;;12.20;4.50;;;;;;;9.66;100.00;100887.41;5043457;28;20026;-43
2022/11/06 08:35:18;;;;;;;12.18;4.10;;;;;;;9.64;100.00;100882.22;5032832;28;20021;-44
2022/11/06 08:37:43;;;;;;;18.67;4.45;;;;;;;9.62;100.00;100873.50;5025597;28;20450;-44
2022/11/06 08:40:09;;;;;;;12.02;3.55;;;;;;;9.63;100.00;100868.94;5031838;28;20029;-44
2022/11/06 08:42:34;;;;;;;15.65;4.43;;;;;;;9.65;100.00;100866.94;5024547;28;20029;-44
2022/11/06 08:45:00;;;;;;;16.15;3.85;;;;;;;9.66;100.00;100861.41;5029727;28;20120;-44
2022/11/06 08:47:25;;;;;;;20.77;4.10;;;;;;;9.67;100.00;100865.75;5033709;28;20029;-44
2022/11/06 08:49:50;;;;;;;19.98;3.58;;;;;;;9.69;100.00;100865.59;5024073;28;20030;-43
2022/11/06 08:52:16;;;;;;;17.08;3.35;;;;;;;9.73;100.00;100864.19;5020544;28;20025;-44
2022/11/06 08:54:41;;;;;;;10.10;3.80;;;;;;;9.76;100.00;100865.69;5032788;28;20710;-43
2022/11/06 08:57:07;;;;;;;14.07;3.67;;;;;;;9.82;100.00;100862.28;5032972;28;20099;-43
2022/11/06 08:59:32;;;;;;;26.15;5.35;;;;;;;9.82;100.00;100852.41;5031781;28;20059;-44
2022/11/06 09:01:59;;;;;;;14.65;3.45;;;;;;;9.86;100.00;100858.25;5031683;28;20333;-43
2022/11/06 09:04:24;;;;;;;18.37;3.40;;;;;;;9.91;100.00;100850.50;5032486;28;20048;-43
2022/11/06 09:06:51;;;;;;;13.77;3.80;;;;;;;9.98;100.00;100845.22;5031526;28;20499;-43
2022/11/06 09:09:16;;;;;;;18.65;3.60;;;;;;;10.02;100.00;100843.88;5031573;28;20112;-43
2022/11/06 09:11:42;;;;;;;27.67;4.30;;;;;;;10.10;100.00;100838.44;5032255;28;20032;-42
2022/11/06 09:14:07;;;;;;;15.43;3.40;;;;;;;10.21;100.00;100834.50;5031882;28;20051;-43
2022/11/06 09:16:32;;;;;;;21.40;3.40;;;;;;;10.20;100.00;100828.28;5032630;28;20076;-42
2022/11/06 09:18:58;;;;;;;13.82;3.10;;;;;;;10.23;100.00;100830.59;5032887;28;20543;-43
2022/11/06 09:21:23;;;;;;;22.73;3.45;;;;;;;10.25;100.00;100825.91;5031491;28;20056;-43
2022/11/06 09:23:49;;;;;;;16.08;3.05;;;;;;;10.30;100.00;100828.09;5031481;28;20455;-43
2022/11/06 09:26:14;;;;;;;12.00;2.65;;;;;;;10.38;100.00;100840.63;5032412;28;20033;-43
2022/11/06 09:28:40;;;;;;;28.13;4.20;;;;;;;10.44;100.00;100829.13;5032632;28;20095;-44
2022/11/06 09:31:06;;;;;;;17.33;3.78;;;;;;;10.44;100.00;100824.59;5030859;28;20424;-43
2022/11/06 09:33:31;;;;;;;13.35;3.25;;;;;;;10.45;100.00;100820.91;5033007;28;20057;-42
2022/11/06 09:35:57;;;;;;;9.23;2.83;;;;;;;10.49;100.00;100818.66;5032527;28;20116;-44
2022/11/06 09:38:22;;;;;;;47.28;5.70;;;;;;;10.50;100.00;100805.00;5031768;28;20489;-43
2022/11/06 09:40:51;;;;;;;13.73;2.90;;;;;;;10.53;100.00;100807.38;5032982;28;20018;-43
2022/11/06 09:43:39;;;;;;;12.00;3.05;;;;;;;10.59;100.00;100795.03;5026518;28;20029;-43
2022/11/06 09:46:19;;;;;;;7.50;3.05;;;;;;;10.66;100.00;100795.94;5032882;28;20322;-43
2022/11/06 09:48:48;;;;;;;11.40;2.60;;;;;;;10.69;100.00;100789.34;5031302;28;20415;-43
2022/11/06 09:51:25;;;;;;;18.58;2.90;;;;;;;10.69;100.00;100783.97;5035529;28;20056;-43
2022/11/06 09:53:54;;;;;;;13.77;3.00;;;;;;;10.70;100.00;100780.28;5031861;28;20029;-43
2022/11/06 09:56:20;;;;;;;13.18;2.95;;;;;;;10.69;100.00;100768.69;5030792;28;20025;-43
2022/11/06 09:58:47;;;;;;;17.08;3.13;;;;;;;10.69;100.00;100768.69;5014194;28;20033;-42
2022/11/06 10:01:17;;;;;;;20.95;3.22;;;;;;;10.71;100.00;100774.69;5031215;28;20033;-43
2022/11/06 10:03:50;;;;;;;14.27;2.80;;;;;;;10.72;100.00;100762.94;5031425;28;20239;-43
2022/11/06 10:06:20;;;;;;;12.60;3.05;;;;;;;10.72;100.00;100762.94;5014389;28;20518;-43
2022/11/06 10:08:46;;;;;;;16.92;3.30;;;;;;;10.73;100.00;100764.59;5032370;28;20050;-43
2022/11/06 10:11:14;;;;;;;8.90;2.72;;;;;;;10.75;100.00;100772.50;5028373;28;20091;-44
2022/11/06 10:13:42;;;;;;;13.27;2.65;;;;;;;10.75;100.00;100759.84;5029110;28;20083;-43
2022/11/06 10:16:17;;;;;;;18.90;2.72;;;;;;;10.80;100.00;100764.69;5032275;28;20462;-44
2022/11/06 10:18:57;;;;;;;14.38;3.60;;;;;;;10.81;100.00;100768.22;5032509;28;20026;-44
2022/11/06 10:21:25;;;;;;;17.55;2.75;;;;;;;10.79;100.00;100759.47;5031806;28;20099;-43
2022/11/06 10:23:54;;;;;;;14.77;3.28;;;;;;;10.75;100.00;100761.72;5013837;28;20041;-44
2022/11/06 10:26:40;;;;;;;13.15;2.85;;;;;;;10.62;100.00;100756.97;5025651;28;20037;-44
2022/11/06 10:29:33;;;;;;;10.50;2.78;;;;;;;10.56;100.00;100757.72;5029570;28;20455;-43
2022/11/06 10:32:25;;;;;;;10.60;2.80;;;;;;;10.53;100.00;100760.75;5010499;28;20499;-42
2022/11/06 10:35:04;;;;;;;15.90;3.20;;;;;;;10.48;100.00;100760.50;5031429;28;20029;-43
2022/11/06 10:37:35;;;;;;;15.63;2.80;;;;;;;10.47;100.00;100756.94;4993698;28;20057;-42
2022/11/06 10:40:04;;;;;;;11.27;4.03;;;;;;;10.47;100.00;100750.75;5018131;28;20791;-42
2022/11/06 10:42:35;;;;;;;13.20;3.50;;;;;;;10.44;100.00;100740.34;5031266;28;20036;-42
2022/11/06 10:45:07;;;;;;;15.80;3.92;;;;;;;10.42;100.00;100743.22;5019052;28;20037;-42
2022/11/06 10:47:38;;;;;;;16.42;4.03;;;;;;;10.38;100.00;100730.31;5030289;28;20029;-42
2022/11/06 10:50:07;;;;;;;19.40;5.07;;;;;;;10.37;100.00;100734.03;5030790;28;20033;-43
2022/11/06 10:52:50;;;;;;;16.20;4.78;;;;;;;10.34;100.00;100732.53;5031684;28;20108;-44
2022/11/06 10:55:53;;;;;;;16.83;4.22;;;;;;;10.37;100.00;100740.22;5030638;28;20345;-43
2022/11/06 10:58:20;;;;;;;12.20;4.18;;;;;;;10.34;100.00;100729.84;5031574;28;20522;-43
2022/11/06 11:00:46;;;;;;;25.05;5.40;;;;;;;10.31;100.00;100735.59;5031431;28;20541;-42
2022/11/06 11:03:23;;;;;;;13.48;4.80;;;;;;;10.29;100.00;100718.78;5030365;28;20030;-43
2022/11/06 11:05:49;;;;;;;16.38;4.85;;;;;;;10.29;100.00;100730.41;5030829;28;20068;-43
2022/11/06 11:08:35;;;;;;;14.25;4.75;;;;;;;10.29;100.00;100713.41;5030997;28;20491;-42
2022/11/06 11:11:24;;;;;;;27.77;5.70;;;;;;;10.27;100.00;100708.22;5027451;28;20140;-44
2022/11/06 11:14:13;;;;;;;17.13;5.18;;;;;;;10.21;100.00;100722.34;5025203;28;20145;-45
2022/11/06 11:16:40;;;;;;;22.58;5.80;;;;;;;10.18;100.00;100738.88;5029113;28;20054;-45
2022/11/06 11:19:14;;;;;;;14.90;4.50;;;;;;;10.16;100.00;100722.06;5028523;28;20036;-45
2022/11/06 11:21:54;;;;;;;18.23;5.22;;;;;;;10.14;100.00;100724.13;5029860;28;20041;-45
2022/11/06 11:24:22;;;;;;;18.95;4.70;;;;;;;10.11;100.00;100716.44;5030228;28;20091;-44
2022/11/06 11:27:12;;;;;;;24.90;4.53;;;;;;;10.08;100.00;100719.47;5028830;28;20061;-46
2022/11/06 11:29:44;;;;;;;21.15;4.75;;;;;;;10.02;100.00;100715.66;5009303;28;20467;-43